Terminal Aerodrome Forecast
Issued by NWS Charleston, WV

Current Version | Previous Version | Graphics & Text | Print | Product List | Glossary On
Versions: 1 2 3 4 5 6 7 8 9 10 11 12 13 14 15 16 17 18 19 20 21 22 23 24 25 26 27 28 29 30 31
000
FTUS41 KRLX 191120
TAFEKN
TAF
KEKN 191120Z 1912/2012 29015G26KT 6SM -SHSN OVC015
     FM191700 29013G27KT 6SM -SHRASN OVC020
     FM192100 28013G22KT 5SM -SHSN OVC015
     FM200400 28012G18KT P6SM BKN020
     FM200900 26009KT P6SM BKN025=

USA.gov is the U.S. government's official web portal to all federal, state and local government web resources and services.